Peru, Nebraska
Current Conditions -  °F | °C
As of 6:15 AM on Sunday 23 Nov 2014 (Local Time) from KAFK Reporting Station
Haze Haze  
Wind Chill: 52°   Ceiling: 200
Heat Index: 52°   Visibility: 0.75mi
Dew Point: 52°   Wind: 6mph
Humidity: 99%   Direction: 160°SSE
Pressure: 29.5"   Gusts: NA
Location:  40.47°N, 95.73°W
Report Text: KAFK 231215Z AUTO 16005KT 3/4SM BR OVC002 11/11 A2950 RMK AO2 T01100109
Loading
Personal Weather Stations






























Interactive Weather Map New forecast layout! Learn more

10-Day Weather Forecast

Advertisements
Track Severe Weather on mobile